createdAt,value
2022-10-16T00:00:33.777Z,59.87
2022-10-16T00:03:26.592Z,58.52
2022-10-16T00:05:58.739Z,56.36
2022-10-16T00:08:27.579Z,58.16
2022-10-16T00:10:56.450Z,59.65
2022-10-16T00:13:25.552Z,61.21
2022-10-16T00:15:54.502Z,62.94
2022-10-16T00:18:23.292Z,67.25
2022-10-16T00:20:52.101Z,65.78
2022-10-16T00:23:21.307Z,63.78
2022-10-16T00:25:50.320Z,60.67
2022-10-16T00:28:19.611Z,57.90
2022-10-16T00:30:48.821Z,57.66
2022-10-16T00:33:17.797Z,60.10
2022-10-16T00:35:46.568Z,60.36
2022-10-16T00:38:15.435Z,60.80
2022-10-16T00:40:44.330Z,65.71
2022-10-16T00:43:13.316Z,67.93
2022-10-16T00:45:42.821Z,62.90
2022-10-16T00:48:11.537Z,60.05
2022-10-16T00:50:42.546Z,59.11
2022-10-16T00:53:11.642Z,58.10
2022-10-16T00:55:42.524Z,58.39
2022-10-16T00:58:11.476Z,59.15
2022-10-16T01:00:41.035Z,59.52
2022-10-16T01:03:09.820Z,60.50
2022-10-16T01:05:38.807Z,60.60
2022-10-16T01:08:07.644Z,61.64
2022-10-16T01:10:36.531Z,61.04
2022-10-16T01:13:05.742Z,61.60
2022-10-16T01:15:34.749Z,63.73
2022-10-16T01:18:03.487Z,70.62
2022-10-16T01:20:32.398Z,69.21
2022-10-16T01:23:01.278Z,65.85
2022-10-16T01:25:30.402Z,64.19
2022-10-16T01:27:59.172Z,61.58
2022-10-16T01:30:27.814Z,60.19
2022-10-16T01:32:56.668Z,58.20
2022-10-16T01:35:25.549Z,56.66
2022-10-16T01:37:54.459Z,57.46
2022-10-16T01:40:23.215Z,58.83
2022-10-16T01:42:52.479Z,59.88
2022-10-16T01:45:21.300Z,59.81
2022-10-16T01:47:50.291Z,60.76
2022-10-16T01:50:19.179Z,60.67
2022-10-16T01:52:48.582Z,61.04
2022-10-16T01:55:17.371Z,61.34
2022-10-16T01:57:46.164Z,61.91
2022-10-16T02:00:15.358Z,63.78
2022-10-16T02:02:44.346Z,71.28
2022-10-16T02:05:13.903Z,70.00
2022-10-16T02:07:43.866Z,66.34
2022-10-16T02:10:13.221Z,63.95
2022-10-16T02:12:41.911Z,61.44
2022-10-16T02:15:10.748Z,60.24
2022-10-16T02:17:39.478Z,57.74
2022-10-16T02:20:08.421Z,56.84
2022-10-16T02:22:37.520Z,58.29
2022-10-16T02:25:06.315Z,59.18
2022-10-16T02:27:35.194Z,59.71
2022-10-16T02:30:08.860Z,60.26
2022-10-16T02:32:37.703Z,60.34
2022-10-16T02:35:06.379Z,61.38
2022-10-16T02:37:35.667Z,63.12
2022-10-16T02:40:06.194Z,69.63
2022-10-16T02:42:35.192Z,68.06
2022-10-16T02:45:05.026Z,64.71
2022-10-16T02:47:33.967Z,62.08
2022-10-16T02:50:02.987Z,60.84
2022-10-16T02:52:31.975Z,59.99
2022-10-16T02:55:00.833Z,59.77
2022-10-16T02:57:30.163Z,56.94
2022-10-16T02:59:59.258Z,58.75
2022-10-16T03:02:28.003Z,59.56
2022-10-16T03:04:56.838Z,59.57
2022-10-16T03:07:25.751Z,61.15
2022-10-16T03:09:55.843Z,62.38
2022-10-16T03:12:24.839Z,68.39
2022-10-16T03:14:53.751Z,68.54
2022-10-16T03:17:22.622Z,65.27
2022-10-16T03:19:51.924Z,63.22
2022-10-16T03:22:20.702Z,61.70
2022-10-16T03:24:49.487Z,60.86
2022-10-16T03:27:18.772Z,59.69
2022-10-16T03:29:48.003Z,56.94
2022-10-16T03:32:16.877Z,56.78
2022-10-16T03:34:45.812Z,58.00
2022-10-16T03:37:14.654Z,59.87
2022-10-16T03:39:43.291Z,61.20
2022-10-16T03:42:12.100Z,63.98
2022-10-16T03:44:40.814Z,68.67
2022-10-16T03:47:09.700Z,66.18
2022-10-16T03:49:38.850Z,63.39
2022-10-16T03:52:07.886Z,61.82
2022-10-16T03:54:36.814Z,60.65
2022-10-16T03:57:05.980Z,59.76
2022-10-16T03:59:35.088Z,58.07
2022-10-16T04:02:04.166Z,57.78
2022-10-16T04:04:32.878Z,59.16
2022-10-16T04:07:01.968Z,60.44
2022-10-16T04:09:30.900Z,61.47
2022-10-16T04:12:00.193Z,66.46
2022-10-16T04:14:29.452Z,68.31
2022-10-16T04:16:58.325Z,66.26
2022-10-16T04:19:27.320Z,63.41
2022-10-16T04:21:57.131Z,61.53
2022-10-16T04:24:25.918Z,61.02
2022-10-16T04:26:54.812Z,60.32
2022-10-16T04:29:23.798Z,59.08
2022-10-16T04:31:52.687Z,58.18
2022-10-16T04:34:21.324Z,59.41
2022-10-16T04:36:50.613Z,60.70
2022-10-16T04:39:19.367Z,66.10
2022-10-16T04:41:48.658Z,66.87
2022-10-16T04:44:17.418Z,63.82
2022-10-16T04:46:46.537Z,62.33
2022-10-16T04:49:15.393Z,61.74
2022-10-16T04:51:44.428Z,60.85
2022-10-16T04:54:13.313Z,59.82
2022-10-16T04:56:47.789Z,59.39
2022-10-16T04:59:16.755Z,57.97
2022-10-16T05:01:45.510Z,58.93
2022-10-16T05:04:14.710Z,59.63
2022-10-16T05:06:43.497Z,62.19
2022-10-16T05:09:12.305Z,67.34
2022-10-16T05:11:41.174Z,66.69
2022-10-16T05:16:43.776Z,62.48
2022-10-16T05:19:28.569Z,62.67
2022-10-16T05:21:58.545Z,61.24
2022-10-16T05:24:27.555Z,60.95
2022-10-16T05:26:56.285Z,60.21
2022-10-16T05:29:25.345Z,59.98
2022-10-16T05:31:54.324Z,59.67
2022-10-16T05:34:23.122Z,57.68
2022-10-16T05:36:51.886Z,57.42
2022-10-16T05:39:20.672Z,59.21
2022-10-16T05:41:50.072Z,61.77
2022-10-16T05:44:19.084Z,63.07
2022-10-16T05:46:48.170Z,68.19
2022-10-16T05:49:17.374Z,67.06
2022-10-16T05:51:46.351Z,64.41
2022-10-16T05:54:15.018Z,62.60
2022-10-16T05:56:43.826Z,61.19
2022-10-16T05:59:12.794Z,60.19
2022-10-16T06:01:41.719Z,59.74
2022-10-16T06:06:40.159Z,58.12
2022-10-16T06:09:09.090Z,60.60
2022-10-16T06:11:37.922Z,60.85
2022-10-16T06:14:08.116Z,66.66
2022-10-16T06:16:37.048Z,67.46
2022-10-16T06:19:07.529Z,65.27
2022-10-16T06:21:36.573Z,63.31
2022-10-16T06:24:05.371Z,61.67
2022-10-16T06:26:34.595Z,60.79
2022-10-16T06:29:03.654Z,60.07
2022-10-16T06:31:34.654Z,59.57
2022-10-16T06:34:05.890Z,57.93
2022-10-16T06:36:34.766Z,57.95
2022-10-16T06:39:03.970Z,59.73
2022-10-16T06:41:33.056Z,60.11
2022-10-16T06:44:03.819Z,59.71
2022-10-16T06:46:32.782Z,59.66
2022-10-16T06:49:02.124Z,66.80
2022-10-16T06:51:33.329Z,69.81
2022-10-16T06:54:03.734Z,68.55
2022-10-16T06:56:33.809Z,65.49
2022-10-16T06:59:03.272Z,62.18
2022-10-16T07:01:32.073Z,61.12
2022-10-16T07:04:00.948Z,60.17
2022-10-16T07:06:30.111Z,58.69
2022-10-16T07:08:58.985Z,56.26
2022-10-16T07:11:27.739Z,56.87
2022-10-16T07:13:57.019Z,58.59
2022-10-16T07:16:25.817Z,58.44
2022-10-16T07:18:59.262Z,59.41
2022-10-16T07:21:28.297Z,59.78
2022-10-16T07:23:57.393Z,61.27
2022-10-16T07:26:26.400Z,68.55
2022-10-16T07:28:55.343Z,69.57
2022-10-16T07:31:24.574Z,66.79
2022-10-16T07:33:53.492Z,61.49
2022-10-16T07:36:22.456Z,59.04
2022-10-16T07:38:54.047Z,57.68
2022-10-16T07:41:25.981Z,57.56
2022-10-16T07:43:55.646Z,58.93
2022-10-16T07:46:24.478Z,60.24
2022-10-16T07:48:53.461Z,60.01
2022-10-16T07:51:22.145Z,60.50
2022-10-16T07:53:50.796Z,62.95
2022-10-16T07:56:19.508Z,69.02
2022-10-16T07:58:49.444Z,69.00
2022-10-16T08:01:18.558Z,66.76
2022-10-16T08:03:47.291Z,63.25
2022-10-16T08:06:16.145Z,61.81
2022-10-16T08:08:45.018Z,59.96
2022-10-16T08:11:15.219Z,58.29
2022-10-16T08:13:44.018Z,57.09
2022-10-16T08:16:13.054Z,59.39
2022-10-16T08:18:41.775Z,60.31
2022-10-16T08:21:10.774Z,64.41
2022-10-16T08:23:39.659Z,63.87
2022-10-16T08:26:08.666Z,61.53
2022-10-16T08:28:37.556Z,59.56
2022-10-16T08:31:06.414Z,55.56
2022-10-16T08:33:36.342Z,56.87
2022-10-16T08:36:05.043Z,59.69
2022-10-16T08:38:33.818Z,61.76
2022-10-16T08:41:03.152Z,63.49
2022-10-16T08:43:31.935Z,61.34
2022-10-16T08:46:00.558Z,57.87
2022-10-16T08:48:29.528Z,54.54
2022-10-16T08:50:58.382Z,53.24
2022-10-16T08:53:27.040Z,54.23
2022-10-16T08:55:55.807Z,55.41
2022-10-16T08:58:24.846Z,55.33
2022-10-16T09:00:53.667Z,56.10
2022-10-16T09:03:22.432Z,55.75
2022-10-16T09:05:51.307Z,55.67
2022-10-16T09:08:20.373Z,56.48
2022-10-16T09:10:49.084Z,60.27
2022-10-16T09:13:18.078Z,58.11
2022-10-16T09:15:46.865Z,59.16
2022-10-16T09:18:15.553Z,57.02
2022-10-16T09:20:44.853Z,57.07
2022-10-16T09:23:13.538Z,60.52
2022-10-16T09:25:42.288Z,60.63
2022-10-16T09:28:11.317Z,57.53
2022-10-16T09:30:39.962Z,58.81
2022-10-16T09:33:08.885Z,57.13
2022-10-16T09:35:37.842Z,59.27
2022-10-16T09:38:06.667Z,58.89
2022-10-16T09:40:36.685Z,59.49
2022-10-16T09:43:05.575Z,59.23
2022-10-16T09:45:34.734Z,58.97
2022-10-16T09:48:03.767Z,59.88
2022-10-16T09:50:33.677Z,57.09
2022-10-16T09:53:02.885Z,57.77
2022-10-16T09:55:31.604Z,57.58
2022-10-16T09:58:00.607Z,57.31
2022-10-16T10:00:31.126Z,56.55
2022-10-16T10:02:59.869Z,58.04
2022-10-16T10:05:29.298Z,58.71
2022-10-16T10:07:58.260Z,57.65
2022-10-16T10:10:27.158Z,54.87
2022-10-16T10:12:56.355Z,56.85
2022-10-16T10:15:25.954Z,58.05
2022-10-16T10:17:54.640Z,57.16
2022-10-16T10:20:23.327Z,58.42
2022-10-16T10:22:52.274Z,57.71
2022-10-16T10:25:21.000Z,57.44
2022-10-16T10:27:50.094Z,58.46
2022-10-16T10:30:18.797Z,58.39
2022-10-16T10:32:47.528Z,55.39
2022-10-16T10:35:16.611Z,56.35
2022-10-16T10:37:45.277Z,56.85
2022-10-16T10:40:14.586Z,57.04
2022-10-16T10:42:43.484Z,57.14
2022-10-16T10:45:12.229Z,55.39
2022-10-16T10:47:41.011Z,55.18
2022-10-16T10:50:09.696Z,56.64
2022-10-16T10:52:39.002Z,56.64
2022-10-16T10:55:07.864Z,55.65
2022-10-16T11:00:10.887Z,55.62
2022-10-16T11:02:39.878Z,55.63
2022-10-16T11:05:08.510Z,52.85
2022-10-16T11:07:37.374Z,51.81
2022-10-16T11:10:06.207Z,52.73
2022-10-16T11:12:34.922Z,53.18
2022-10-16T11:15:03.890Z,54.88
2022-10-16T11:17:32.593Z,54.41
2022-10-16T11:20:01.295Z,54.44
2022-10-16T11:22:30.589Z,53.82
2022-10-16T11:27:33.423Z,52.67
2022-10-16T11:30:02.782Z,52.48
2022-10-16T11:32:32.121Z,53.23
2022-10-16T11:35:00.876Z,54.10
2022-10-16T11:37:29.971Z,54.43
2022-10-16T11:39:58.828Z,54.23
2022-10-16T11:42:27.649Z,54.50
2022-10-16T11:44:56.615Z,54.26
2022-10-16T11:47:46.445Z,54.40
2022-10-16T11:50:14.631Z,54.83
2022-10-16T11:52:43.330Z,55.12
2022-10-16T11:55:12.177Z,55.20
2022-10-16T11:57:41.385Z,54.24
2022-10-16T12:00:10.047Z,54.39
2022-10-16T12:02:42.117Z,54.44
2022-10-16T12:05:11.214Z,55.68
2022-10-16T12:07:39.997Z,55.17
2022-10-16T12:10:08.870Z,54.80
2022-10-16T12:12:38.031Z,55.11
2022-10-16T12:15:35.176Z,54.83
2022-10-16T12:17:56.497Z,55.52
2022-10-16T12:20:25.541Z,55.57
2022-10-16T12:22:55.692Z,55.72
2022-10-16T12:25:24.962Z,55.03
2022-10-16T12:27:53.680Z,54.88
2022-10-16T12:30:22.429Z,55.21
2022-10-16T12:32:51.998Z,55.46
2022-10-16T12:35:21.539Z,54.35
2022-10-16T12:37:50.385Z,53.75
2022-10-16T12:40:19.833Z,53.35
2022-10-16T12:42:48.624Z,53.48
2022-10-16T12:45:17.276Z,53.27
2022-10-16T12:47:46.435Z,53.94
2022-10-16T12:50:17.498Z,54.44
2022-10-16T12:52:46.744Z,54.08
2022-10-16T12:55:16.068Z,54.53
2022-10-16T12:57:44.735Z,54.73
2022-10-16T13:00:13.647Z,54.49
2022-10-16T13:02:43.732Z,54.49
2022-10-16T13:05:12.416Z,54.77
2022-10-16T13:07:41.109Z,54.85
2022-10-16T13:10:09.926Z,54.31
2022-10-16T13:12:38.732Z,54.24
2022-10-16T13:15:07.485Z,54.34
2022-10-16T13:17:36.593Z,54.62
2022-10-16T13:20:05.285Z,54.93
2022-10-16T13:22:34.244Z,55.45
2022-10-16T13:25:03.129Z,55.73
2022-10-16T13:27:32.075Z,55.93
2022-10-16T13:30:00.781Z,56.34
2022-10-16T13:32:30.090Z,56.81
2022-10-16T13:34:59.507Z,57.19
2022-10-16T13:37:29.001Z,57.29
2022-10-16T13:39:58.564Z,57.39
2022-10-16T13:42:28.261Z,57.55
2022-10-16T13:44:57.332Z,57.82
2022-10-16T13:47:26.411Z,57.79
2022-10-16T13:49:55.405Z,58.14
2022-10-16T13:52:24.828Z,58.12
2022-10-16T13:54:57.955Z,58.26
2022-10-16T13:57:30.115Z,58.37
2022-10-16T13:59:59.518Z,58.48
2022-10-16T14:02:28.815Z,58.73
2022-10-16T14:04:57.885Z,58.63
2022-10-16T14:07:27.121Z,58.74
2022-10-16T14:09:55.957Z,58.84
2022-10-16T14:12:28.035Z,59.03
2022-10-16T14:14:57.931Z,59.20
2022-10-16T14:17:26.618Z,59.43
2022-10-16T14:19:59.596Z,59.44
2022-10-16T14:22:32.301Z,59.66
2022-10-16T14:25:01.066Z,59.82
2022-10-16T14:27:30.066Z,59.86
2022-10-16T14:29:59.664Z,59.74
2022-10-16T14:32:28.611Z,59.90
2022-10-16T14:34:57.765Z,59.77
2022-10-16T14:37:27.944Z,59.83
2022-10-16T14:39:57.236Z,59.71
2022-10-16T14:42:25.944Z,59.52
2022-10-16T14:44:56.210Z,59.55
2022-10-16T14:47:26.571Z,59.29
2022-10-16T14:49:57.232Z,58.92
2022-10-16T14:52:26.325Z,57.37
2022-10-16T14:54:55.794Z,55.39
2022-10-16T14:57:24.801Z,54.68
2022-10-16T14:59:54.027Z,55.57
2022-10-16T15:02:23.384Z,54.79
2022-10-16T15:04:52.063Z,54.68
2022-10-16T15:07:21.180Z,53.64
2022-10-16T15:09:49.886Z,52.80
2022-10-16T15:12:19.413Z,52.02
2022-10-16T15:14:48.311Z,52.76
2022-10-16T15:17:18.755Z,52.86
2022-10-16T15:19:50.593Z,53.98
2022-10-16T15:22:19.559Z,55.21
2022-10-16T15:24:48.439Z,56.28
2022-10-16T15:27:17.262Z,57.12
2022-10-16T15:29:46.329Z,58.38
2022-10-16T15:32:15.322Z,59.41
2022-10-16T15:34:44.213Z,60.11
2022-10-16T15:37:14.772Z,60.77
2022-10-16T15:39:43.580Z,61.52
2022-10-16T15:42:12.430Z,62.64
2022-10-16T15:44:41.260Z,61.57
2022-10-16T15:47:10.006Z,57.84
2022-10-16T15:49:39.161Z,57.91
2022-10-16T15:52:08.082Z,59.25
2022-10-16T15:54:38.302Z,60.27
2022-10-16T15:57:07.295Z,61.40
2022-10-16T15:59:36.048Z,60.56
2022-10-16T16:02:04.963Z,60.71
2022-10-16T16:04:49.308Z,61.77
2022-10-16T16:07:18.054Z,61.57
2022-10-16T16:09:47.539Z,61.84
2022-10-16T16:12:16.613Z,61.98
2022-10-16T16:14:47.274Z,61.95
2022-10-16T16:17:16.549Z,61.79
2022-10-16T16:19:45.333Z,61.82
2022-10-16T16:22:14.115Z,61.71
2022-10-16T16:24:43.231Z,61.64
2022-10-16T16:27:12.219Z,61.67
2022-10-16T16:29:40.934Z,61.88
2022-10-16T16:32:10.099Z,62.13
2022-10-16T16:34:38.921Z,63.01
2022-10-16T16:37:07.859Z,70.40
2022-10-16T16:39:37.057Z,70.16
2022-10-16T16:42:07.365Z,66.44
2022-10-16T16:44:37.441Z,62.80
2022-10-16T16:47:06.407Z,61.17
2022-10-16T16:49:35.282Z,58.32
2022-10-16T16:52:05.001Z,56.22
2022-10-16T16:57:07.636Z,57.61
2022-10-16T16:59:36.479Z,58.39
2022-10-16T17:02:05.341Z,59.66
2022-10-16T17:04:34.359Z,61.04
2022-10-16T17:07:03.372Z,60.82
2022-10-16T17:09:32.018Z,60.78
2022-10-16T17:12:00.821Z,61.16
2022-10-16T17:14:30.158Z,61.59
2022-10-16T17:16:59.214Z,61.39
2022-10-16T17:19:28.134Z,61.14
2022-10-16T17:21:57.187Z,62.15
2022-10-16T17:24:25.908Z,68.01
2022-10-16T17:26:55.082Z,69.47
2022-10-16T17:29:23.899Z,66.85
2022-10-16T17:31:52.964Z,63.24
2022-10-16T17:34:22.056Z,60.76
2022-10-16T17:36:51.182Z,58.78
2022-10-16T17:39:19.838Z,56.12
2022-10-16T17:41:48.804Z,56.24
2022-10-16T17:44:20.897Z,57.57
2022-10-16T17:46:49.812Z,58.54
2022-10-16T17:49:18.881Z,58.47
2022-10-16T17:51:47.958Z,60.01
2022-10-16T17:54:17.186Z,60.38
2022-10-16T17:56:47.854Z,60.65
2022-10-16T17:59:16.983Z,61.34
2022-10-16T18:01:46.658Z,61.12
2022-10-16T18:04:15.633Z,61.55
2022-10-16T18:06:44.474Z,67.38
2022-10-16T18:09:14.622Z,68.72
2022-10-16T18:11:43.623Z,64.90
2022-10-16T18:14:12.790Z,63.26
2022-10-16T18:16:41.958Z,62.88
2022-10-16T18:19:10.647Z,61.60
2022-10-16T18:21:39.876Z,59.77
2022-10-16T18:24:08.868Z,58.22
2022-10-16T18:26:37.544Z,59.77
2022-10-16T18:29:06.660Z,61.60
2022-10-16T18:31:37.888Z,60.98
2022-10-16T18:34:09.457Z,61.25
2022-10-16T18:36:38.533Z,65.01
2022-10-16T18:39:09.527Z,69.88
2022-10-16T18:41:38.584Z,68.03
2022-10-16T18:44:07.452Z,65.79
2022-10-16T18:46:36.154Z,62.90
2022-10-16T18:49:05.349Z,61.29
2022-10-16T18:51:34.337Z,60.66
2022-10-16T18:54:03.326Z,60.51
2022-10-16T18:56:32.219Z,60.28
2022-10-16T18:59:01.131Z,60.15
2022-10-16T19:01:31.399Z,59.30
2022-10-16T19:04:01.045Z,57.36
2022-10-16T19:06:30.252Z,58.37
2022-10-16T19:08:58.924Z,58.48
2022-10-16T19:11:28.016Z,63.39
2022-10-16T19:13:57.050Z,66.71
2022-10-16T19:16:25.797Z,64.77
2022-10-16T19:18:54.787Z,62.96
2022-10-16T19:21:24.643Z,61.61
2022-10-16T19:23:53.999Z,60.39
2022-10-16T19:26:24.126Z,60.01
2022-10-16T19:28:53.977Z,59.85
2022-10-16T19:31:22.844Z,57.57
2022-10-16T19:33:51.659Z,58.65
2022-10-16T19:36:20.704Z,60.45
2022-10-16T19:38:49.804Z,62.15
2022-10-16T19:41:18.667Z,66.93
2022-10-16T19:43:47.624Z,67.82
2022-10-16T19:46:16.874Z,65.44
2022-10-16T19:48:45.837Z,63.30
2022-10-16T19:51:15.089Z,61.73
2022-10-16T19:53:43.778Z,60.32
2022-10-16T19:56:12.852Z,58.65
2022-10-16T19:58:41.740Z,58.90
2022-10-16T20:01:10.565Z,60.39
2022-10-16T20:03:40.653Z,61.85
2022-10-16T20:06:09.560Z,66.70
2022-10-16T20:08:38.527Z,67.09
2022-10-16T20:11:07.558Z,64.23
2022-10-16T20:13:39.842Z,63.07
2022-10-16T20:16:12.035Z,62.37
2022-10-16T20:18:40.971Z,61.99
2022-10-16T20:21:09.978Z,62.27
2022-10-16T20:23:38.935Z,62.36
2022-10-16T20:26:07.927Z,61.87
2022-10-16T20:28:36.933Z,61.36
2022-10-16T20:31:05.789Z,61.02
2022-10-16T20:33:34.729Z,60.54
2022-10-16T20:36:03.922Z,59.98
2022-10-16T20:38:32.609Z,58.53
2022-10-16T20:41:01.881Z,59.83
2022-10-16T20:43:30.709Z,61.27
2022-10-16T20:45:59.382Z,61.50
2022-10-16T20:48:28.391Z,66.80
2022-10-16T20:50:57.054Z,68.26
2022-10-16T20:53:26.018Z,65.49
2022-10-16T20:55:55.022Z,63.50
2022-10-16T20:58:23.724Z,62.10
2022-10-16T21:00:53.000Z,61.42
2022-10-16T21:03:21.918Z,61.56
2022-10-16T21:05:50.573Z,61.19
2022-10-16T21:08:19.663Z,59.94
2022-10-16T21:10:48.469Z,58.42
2022-10-16T21:13:17.353Z,59.93
2022-10-16T21:15:46.391Z,62.17
2022-10-16T21:18:15.351Z,66.56
2022-10-16T21:20:44.380Z,64.65
2022-10-16T21:23:13.399Z,63.25
2022-10-16T21:25:42.303Z,62.64
2022-10-16T21:28:10.984Z,62.24
2022-10-16T21:30:39.694Z,61.66
2022-10-16T21:33:08.792Z,60.92
2022-10-16T21:35:37.970Z,60.56
2022-10-16T21:38:07.775Z,60.42
2022-10-16T21:40:36.906Z,60.59
2022-10-16T21:43:05.763Z,60.72
2022-10-16T21:45:34.754Z,60.33
2022-10-16T21:48:03.759Z,59.99
2022-10-16T21:50:32.443Z,59.05
2022-10-16T21:53:01.521Z,59.12
2022-10-16T21:55:30.825Z,61.09
2022-10-16T21:57:59.470Z,65.17
2022-10-16T22:00:28.757Z,66.75
2022-10-16T22:02:58.948Z,65.10
2022-10-16T22:05:27.624Z,63.86
2022-10-16T22:07:56.433Z,62.86
2022-10-16T22:10:25.201Z,61.93
2022-10-16T22:12:54.121Z,60.87
2022-10-16T22:17:52.353Z,59.87
2022-10-16T22:20:21.053Z,63.54
2022-10-16T22:22:52.744Z,65.62
2022-10-16T22:25:21.601Z,64.49
2022-10-16T22:27:50.515Z,63.69
2022-10-16T22:30:19.322Z,62.67
2022-10-16T22:32:48.172Z,61.69
2022-10-16T22:35:16.955Z,60.83
2022-10-16T22:37:45.746Z,59.81
2022-10-16T22:40:14.632Z,59.35
2022-10-16T22:42:43.557Z,63.46
2022-10-16T22:45:12.363Z,64.90
2022-10-16T22:47:41.016Z,64.91
2022-10-16T22:50:09.688Z,64.40
2022-10-16T22:52:39.491Z,63.88
2022-10-16T22:55:08.388Z,62.87
2022-10-16T22:57:37.268Z,62.52
2022-10-16T23:00:06.157Z,61.74
2022-10-16T23:02:34.977Z,61.00
2022-10-16T23:05:04.245Z,61.32
2022-10-16T23:07:33.101Z,60.85
2022-10-16T23:12:35.631Z,59.91
2022-10-16T23:15:04.414Z,59.79
2022-10-16T23:17:33.101Z,59.82
2022-10-16T23:20:02.105Z,59.68
2022-10-16T23:22:31.061Z,59.57
2022-10-16T23:24:59.976Z,58.86
2022-10-16T23:27:28.863Z,58.90
2022-10-16T23:29:57.663Z,58.67
2022-10-16T23:32:26.745Z,59.10
2022-10-16T23:34:55.944Z,63.14
2022-10-16T23:37:24.748Z,69.66
2022-10-16T23:39:53.973Z,68.00
2022-10-16T23:42:23.297Z,64.92
2022-10-16T23:44:52.016Z,63.37
2022-10-16T23:47:20.727Z,63.10
2022-10-16T23:49:49.675Z,62.45
2022-10-16T23:52:18.605Z,61.99
2022-10-16T23:54:47.449Z,62.16
2022-10-16T23:57:16.567Z,61.92
2022-10-16T23:59:45.563Z,61.36
